Time;durP1;ratioP1;P1;durP2;ratioP2;P2;SDS_P1;SDS_P2;PMS_P1;PMS_P2;Temp;Humidity;BMP_temperature;BMP_pressure;BME280_temperature;BME280_humidity;BME280_pressure;Samples;Min_cycle;Max_cycle;Signal;HPM_P1;HPM_P2
2021/12/02 00:01:56;;;;;;;17.00;11.30;;;;;;;;;;4995783;28;20199;-82
2021/12/02 00:04:22;;;;;;;25.07;11.03;;;;;;;;;;4995858;28;20196;-83
2021/12/02 00:06:48;;;;;;;19.88;10.32;;;;;;;;;;4995465;28;20410;-81
2021/12/02 00:09:14;;;;;;;13.07;10.30;;;;;;;;;;4995159;28;20262;-81
2021/12/02 00:11:40;;;;;;;14.68;10.02;;;;;;;;;;4995479;28;20188;-82
2021/12/02 00:14:10;;;;;;;14.90;9.05;;;;;;;;;;4995618;28;20234;-83
2021/12/02 00:21:50;;;;;;;16.40;9.20;;;;;;;;;;4995410;28;20663;-84
2021/12/02 00:24:19;;;;;;;18.15;10.05;;;;;;;;;;4994116;28;20293;-81
2021/12/02 00:26:45;;;;;;;17.85;9.90;;;;;;;;;;4994118;28;20176;-83
2021/12/02 00:29:11;;;;;;;16.55;9.93;;;;;;;;;;4994991;28;20190;-82
2021/12/02 00:31:38;;;;;;;15.88;10.02;;;;;;;;;;4995109;28;20588;-80
2021/12/02 00:34:06;;;;;;;13.73;10.45;;;;;;;;;;4995231;28;20178;-82
2021/12/02 00:36:33;;;;;;;14.95;8.75;;;;;;;;;;4995026;28;20178;-82
2021/12/02 00:39:03;;;;;;;15.32;9.57;;;;;;;;;;4994958;28;20183;-81
2021/12/02 00:41:29;;;;;;;14.02;8.55;;;;;;;;;;4994492;28;20191;-83
2021/12/02 00:43:56;;;;;;;18.90;10.15;;;;;;;;;;4995003;28;20180;-82
2021/12/02 00:46:23;;;;;;;14.63;9.13;;;;;;;;;;4994463;28;20178;-81
2021/12/02 00:48:50;;;;;;;13.65;9.60;;;;;;;;;;4994799;28;20191;-81
2021/12/02 00:51:17;;;;;;;18.27;11.02;;;;;;;;;;4994290;28;20206;-82
2021/12/02 00:53:45;;;;;;;21.13;10.02;;;;;;;;;;4994633;28;20172;-80
2021/12/02 00:56:16;;;;;;;18.48;11.27;;;;;;;;;;4994546;28;20171;-82
2021/12/02 00:58:45;;;;;;;12.35;9.38;;;;;;;;;;4994840;28;20174;-82
2021/12/02 01:01:11;;;;;;;17.85;11.13;;;;;;;;;;4994427;28;20277;-82
2021/12/02 01:03:38;;;;;;;21.15;10.15;;;;;;;;;;4994631;28;20648;-82
2021/12/02 01:06:05;;;;;;;15.35;9.82;;;;;;;;;;4994655;28;20520;-81
2021/12/02 01:08:35;;;;;;;13.02;9.40;;;;;;;;;;4994524;28;20602;-82
2021/12/02 01:11:02;;;;;;;14.60;9.45;;;;;;;;;;4994073;28;20606;-81
2021/12/02 01:13:28;;;;;;;19.02;9.13;;;;;;;;;;4993235;28;20643;-81
2021/12/02 01:15:54;;;;;;;16.08;9.75;;;;;;;;;;4994403;28;20213;-82
2021/12/02 01:18:21;;;;;;;17.08;8.93;;;;;;;;;;4994564;28;20175;-82
2021/12/02 01:20:48;;;;;;;20.42;9.68;;;;;;;;;;4994103;28;20195;-81
2021/12/02 01:23:16;;;;;;;14.85;8.93;;;;;;;;;;4993154;28;20194;-82
2021/12/02 01:25:42;;;;;;;14.60;9.00;;;;;;;;;;4994183;28;20261;-82
2021/12/02 01:28:09;;;;;;;14.60;9.77;;;;;;;;;;4994223;28;20175;-83
2021/12/02 01:30:35;;;;;;;13.75;8.68;;;;;;;;;;4993679;28;20289;-82
2021/12/02 01:33:03;;;;;;;16.83;7.65;;;;;;;;;;4994091;28;20178;-81
2021/12/02 01:35:29;;;;;;;13.23;9.10;;;;;;;;;;4993830;28;20548;-81
2021/12/02 01:37:55;;;;;;;12.75;8.15;;;;;;;;;;4992728;28;20293;-82
2021/12/02 01:40:21;;;;;;;14.20;8.60;;;;;;;;;;4993676;28;20196;-80
2021/12/02 01:42:51;;;;;;;15.73;7.55;;;;;;;;;;4994278;28;20194;-81
2021/12/02 01:45:20;;;;;;;11.77;7.75;;;;;;;;;;4993956;28;20684;-82
2021/12/02 01:47:48;;;;;;;10.45;7.57;;;;;;;;;;4993850;28;20243;-81
2021/12/02 01:50:16;;;;;;;11.88;7.47;;;;;;;;;;4993483;28;20210;-80
2021/12/02 01:52:43;;;;;;;16.70;8.50;;;;;;;;;;4992660;28;20182;-81
2021/12/02 01:55:13;;;;;;;13.27;8.60;;;;;;;;;;4994170;28;20182;-81
2021/12/02 01:57:41;;;;;;;8.93;8.00;;;;;;;;;;4993155;28;20176;-81
2021/12/02 02:00:14;;;;;;;10.25;8.05;;;;;;;;;;4992276;28;20290;-80
2021/12/02 02:02:40;;;;;;;16.85;7.43;;;;;;;;;;4993808;28;20177;-79
2021/12/02 02:05:12;;;;;;;10.30;8.85;;;;;;;;;;4993782;28;20187;-82
2021/12/02 02:07:41;;;;;;;12.02;8.18;;;;;;;;;;4993788;28;20507;-82
2021/12/02 02:10:07;;;;;;;12.63;8.63;;;;;;;;;;4993244;28;20220;-80
2021/12/02 02:12:34;;;;;;;11.70;8.80;;;;;;;;;;4992557;28;20580;-80
2021/12/02 02:15:00;;;;;;;20.55;9.50;;;;;;;;;;4993804;28;20190;-80
2021/12/02 02:17:30;;;;;;;13.57;10.45;;;;;;;;;;4994248;28;20229;-81
2021/12/02 02:22:59;;;;;;;14.93;10.00;;;;;;;;;;4994245;28;20550;-81
2021/12/02 02:25:25;;;;;;;15.13;10.40;;;;;;;;;;4994059;28;20196;-81
2021/12/02 02:27:51;;;;;;;18.00;9.87;;;;;;;;;;4993593;28;20200;-81
2021/12/02 02:30:17;;;;;;;11.10;9.37;;;;;;;;;;4992133;28;20482;-82
2021/12/02 02:32:44;;;;;;;14.27;10.85;;;;;;;;;;4993681;28;20771;-81
2021/12/02 02:35:10;;;;;;;7.68;6.38;;;;;;;;;;4993521;28;20592;-82
2021/12/02 02:37:37;;;;;;;14.60;9.98;;;;;;;;;;4993544;28;20179;-80
2021/12/02 02:40:08;;;;;;;11.50;8.68;;;;;;;;;;4993014;28;20279;-81
2021/12/02 02:42:34;;;;;;;13.68;8.10;;;;;;;;;;4993478;28;20254;-80
2021/12/02 02:45:01;;;;;;;10.77;7.50;;;;;;;;;;4976231;28;20183;-81
2021/12/02 02:47:28;;;;;;;9.10;7.45;;;;;;;;;;4993628;28;20266;-80
2021/12/02 02:49:54;;;;;;;9.82;7.93;;;;;;;;;;4993157;28;20210;-81
2021/12/02 02:52:20;;;;;;;18.02;7.70;;;;;;;;;;4993762;28;20195;-82
2021/12/02 02:54:47;;;;;;;9.15;7.65;;;;;;;;;;4993493;28;20178;-82
2021/12/02 02:57:15;;;;;;;13.70;8.32;;;;;;;;;;4993305;28;20163;-82
2021/12/02 03:07:29;;;;;;;14.23;8.13;;;;;;;;;;4993537;28;20180;-82
2021/12/02 03:10:10;;;;;;;13.95;7.15;;;;;;;;;;4995817;28;20605;-81
2021/12/02 03:12:42;;;;;;;8.43;5.95;;;;;;;;;;4996082;28;20238;-81
2021/12/02 03:17:35;;;;;;;9.35;6.88;;;;;;;;;;4999522;28;20176;-81
2021/12/02 03:20:01;;;;;;;12.30;7.75;;;;;;;;;;4997240;28;20219;-82
2021/12/02 03:22:27;;;;;;;14.95;6.78;;;;;;;;;;4996558;28;20210;-81
2021/12/02 03:24:53;;;;;;;11.52;6.65;;;;;;;;;;4996462;28;20213;-82
2021/12/02 03:27:19;;;;;;;7.50;5.75;;;;;;;;;;4996366;28;20175;-81
2021/12/02 03:29:45;;;;;;;11.03;6.53;;;;;;;;;;4995887;28;20551;-80
2021/12/02 03:32:12;;;;;;;8.27;6.20;;;;;;;;;;4994879;28;20415;-81
2021/12/02 03:34:38;;;;;;;7.55;5.20;;;;;;;;;;4996240;28;20458;-82
2021/12/02 03:37:05;;;;;;;12.07;4.85;;;;;;;;;;4996300;28;20572;-81
2021/12/02 03:39:31;;;;;;;9.98;5.22;;;;;;;;;;4996137;28;21091;-80
2021/12/02 03:41:57;;;;;;;9.85;5.00;;;;;;;;;;4995963;28;20206;-81
2021/12/02 03:44:24;;;;;;;6.55;4.38;;;;;;;;;;4995968;28;20185;-81
2021/12/02 03:46:50;;;;;;;7.85;4.45;;;;;;;;;;4996084;28;20178;-81
2021/12/02 03:49:16;;;;;;;8.68;4.53;;;;;;;;;;4995692;28;20191;-81
2021/12/02 03:51:42;;;;;;;9.07;4.82;;;;;;;;;;4994796;28;20202;-81
2021/12/02 03:54:08;;;;;;;8.68;4.75;;;;;;;;;;4994931;28;20214;-81
2021/12/02 03:56:34;;;;;;;7.60;4.70;;;;;;;;;;4995781;28;20196;-81
2021/12/02 03:59:00;;;;;;;6.32;4.47;;;;;;;;;;4995994;28;20406;-81
2021/12/02 04:01:26;;;;;;;5.07;3.70;;;;;;;;;;4995116;28;20198;-80
2021/12/02 04:03:53;;;;;;;11.20;5.05;;;;;;;;;;4994435;28;20227;-81
2021/12/02 04:06:19;;;;;;;11.93;5.57;;;;;;;;;;4995622;28;20191;-82
2021/12/02 04:11:32;;;;;;;14.00;6.03;;;;;;;;;;4995387;28;20223;-81
2021/12/02 04:16:36;;;;;;;9.02;5.32;;;;;;;;;;4996130;28;20181;-81
2021/12/02 04:19:03;;;;;;;7.15;4.95;;;;;;;;;;4995822;28;20172;-82
2021/12/02 04:21:29;;;;;;;8.98;6.43;;;;;;;;;;4995167;28;20215;-81
2021/12/02 04:23:56;;;;;;;11.65;5.60;;;;;;;;;;4995567;28;20186;-80
2021/12/02 04:26:22;;;;;;;9.35;6.05;;;;;;;;;;4995880;28;20262;-81
2021/12/02 04:28:48;;;;;;;16.35;7.00;;;;;;;;;;4995723;28;20189;-81
2021/12/02 04:31:13;;;;;;;10.95;5.75;;;;;;;;;;4995071;28;20666;-80
2021/12/02 04:33:39;;;;;;;9.45;6.43;;;;;;;;;;4995277;28;20175;-82
2021/12/02 04:36:06;;;;;;;15.70;7.15;;;;;;;;;;4995738;28;20663;-81
2021/12/02 04:38:33;;;;;;;8.65;5.70;;;;;;;;;;4996051;28;20535;-81
2021/12/02 04:40:59;;;;;;;10.40;6.53;;;;;;;;;;4994828;28;20227;-81
2021/12/02 04:43:25;;;;;;;9.85;6.30;;;;;;;;;;4995562;28;20188;-81
2021/12/02 04:45:52;;;;;;;8.57;5.22;;;;;;;;;;4995120;28;20688;-83
2021/12/02 04:48:18;;;;;;;6.43;5.75;;;;;;;;;;4995488;28;20229;-82
2021/12/02 04:50:45;;;;;;;9.48;5.00;;;;;;;;;;4995144;28;20282;-80
2021/12/02 04:53:11;;;;;;;9.98;4.70;;;;;;;;;;4995408;28;20179;-82
2021/12/02 04:55:37;;;;;;;9.65;5.10;;;;;;;;;;4977892;28;20180;-80
2021/12/02 04:58:03;;;;;;;8.13;5.32;;;;;;;;;;4994947;28;20178;-82
2021/12/02 05:00:30;;;;;;;7.38;3.45;;;;;;;;;;4994727;28;20286;-81
2021/12/02 05:02:56;;;;;;;10.45;3.67;;;;;;;;;;4993993;28;20183;-81
2021/12/02 05:05:23;;;;;;;12.30;3.00;;;;;;;;;;4993464;28;20190;-81
2021/12/02 05:07:52;;;;;;;8.00;3.53;;;;;;;;;;4994723;28;20430;-81
2021/12/02 05:10:18;;;;;;;8.45;3.40;;;;;;;;;;4993183;28;20676;-81
2021/12/02 05:12:44;;;;;;;6.05;3.80;;;;;;;;;;4995195;28;20206;-81
2021/12/02 05:15:10;;;;;;;11.32;5.00;;;;;;;;;;4995232;28;20179;-81
2021/12/02 05:17:36;;;;;;;10.80;5.65;;;;;;;;;;4994783;28;20663;-82
2021/12/02 05:20:03;;;;;;;17.17;5.70;;;;;;;;;;4994270;28;20207;-82
2021/12/02 05:22:29;;;;;;;8.90;4.65;;;;;;;;;;4995155;28;20447;-82
2021/12/02 05:24:55;;;;;;;9.53;4.90;;;;;;;;;;4993361;28;20200;-82
2021/12/02 05:27:21;;;;;;;12.23;4.40;;;;;;;;;;4994877;28;20476;-81
2021/12/02 05:29:47;;;;;;;11.83;4.50;;;;;;;;;;4993457;28;20218;-81
2021/12/02 05:32:13;;;;;;;8.35;4.65;;;;;;;;;;4995488;28;20569;-81
2021/12/02 05:34:39;;;;;;;4.73;3.83;;;;;;;;;;4993310;28;20210;-80
2021/12/02 05:37:05;;;;;;;9.27;3.47;;;;;;;;;;4993917;28;20505;-80
2021/12/02 05:39:31;;;;;;;11.75;4.30;;;;;;;;;;4993765;28;20183;-81
2021/12/02 05:41:57;;;;;;;9.60;3.58;;;;;;;;;;4993956;28;20608;-81
2021/12/02 05:44:24;;;;;;;6.82;3.33;;;;;;;;;;4993974;28;20520;-81
2021/12/02 05:46:51;;;;;;;8.45;3.60;;;;;;;;;;4994134;28;20541;-81
2021/12/02 05:49:17;;;;;;;6.90;2.50;;;;;;;;;;4993888;28;20180;-79
2021/12/02 05:51:45;;;;;;;5.53;2.60;;;;;;;;;;4993775;28;20210;-81
2021/12/02 05:54:11;;;;;;;4.82;2.60;;;;;;;;;;4993768;28;20254;-80
2021/12/02 05:56:37;;;;;;;11.20;3.40;;;;;;;;;;4994279;28;20665;-80
2021/12/02 05:59:03;;;;;;;5.72;3.38;;;;;;;;;;4994164;28;20178;-81
2021/12/02 06:01:29;;;;;;;6.63;3.85;;;;;;;;;;4993818;28;20214;-82
2021/12/02 06:03:55;;;;;;;5.80;4.03;;;;;;;;;;4993958;28;20193;-81
2021/12/02 06:06:25;;;;;;;8.75;4.03;;;;;;;;;;4993867;28;20182;-81
2021/12/02 06:08:51;;;;;;;9.55;4.28;;;;;;;;;;4992872;28;20183;-82
2021/12/02 06:11:17;;;;;;;11.35;4.50;;;;;;;;;;4993397;28;20215;-81
2021/12/02 06:13:45;;;;;;;9.85;4.20;;;;;;;;;;4992515;28;20187;-80
2021/12/02 06:16:11;;;;;;;6.07;3.53;;;;;;;;;;4993804;28;20195;-81
2021/12/02 06:18:37;;;;;;;6.75;3.80;;;;;;;;;;4992637;28;20551;-80
2021/12/02 06:21:03;;;;;;;7.40;4.28;;;;;;;;;;4991950;28;20253;-80
2021/12/02 06:23:29;;;;;;;11.63;4.35;;;;;;;;;;4993621;28;20183;-83
2021/12/02 06:25:55;;;;;;;8.25;4.55;;;;;;;;;;4993501;28;20191;-83
2021/12/02 06:28:21;;;;;;;13.77;5.03;;;;;;;;;;4993758;28;20590;-83
2021/12/02 06:30:48;;;;;;;14.35;4.93;;;;;;;;;;4993163;28;20225;-83
2021/12/02 06:33:14;;;;;;;7.72;4.53;;;;;;;;;;4992386;28;20183;-84
2021/12/02 06:35:41;;;;;;;9.20;3.13;;;;;;;;;;4993489;28;20175;-84
2021/12/02 06:38:07;;;;;;;6.35;4.93;;;;;;;;;;4993448;28;20180;-82
2021/12/02 06:40:34;;;;;;;12.32;4.07;;;;;;;;;;4993177;28;20234;-81
2021/12/02 06:43:01;;;;;;;6.28;4.50;;;;;;;;;;4992772;28;20187;-83
2021/12/02 06:45:27;;;;;;;6.97;4.22;;;;;;;;;;4996225;28;20214;-84
2021/12/02 06:47:58;;;;;;;5.70;3.55;;;;;;;;;;4997570;28;20175;-81
2021/12/02 06:50:24;;;;;;;9.23;4.78;;;;;;;;;;5002281;28;20217;-83
2021/12/02 06:52:51;;;;;;;7.07;4.25;;;;;;;;;;5001223;28;20178;-82
2021/12/02 06:55:18;;;;;;;5.15;3.40;;;;;;;;;;4999741;28;20182;-83
2021/12/02 06:57:44;;;;;;;5.82;3.85;;;;;;;;;;4997054;28;20171;-82
2021/12/02 07:00:11;;;;;;;5.95;4.03;;;;;;;;;;4995810;28;20228;-82
2021/12/02 07:02:38;;;;;;;8.13;4.22;;;;;;;;;;4997693;28;20240;-82
2021/12/02 07:05:04;;;;;;;10.25;4.40;;;;;;;;;;4997306;28;20604;-83
2021/12/02 07:07:34;;;;;;;11.15;5.53;;;;;;;;;;4996056;28;20273;-81
2021/12/02 07:10:00;;;;;;;9.88;4.18;;;;;;;;;;4996582;28;20293;-83
2021/12/02 07:12:33;;;;;;;5.97;4.15;;;;;;;;;;4997242;28;20682;-83
2021/12/02 07:15:04;;;;;;;8.65;3.22;;;;;;;;;;4995815;28;20163;-83
2021/12/02 07:17:31;;;;;;;5.30;3.53;;;;;;;;;;4997320;28;20182;-82
2021/12/02 07:19:57;;;;;;;4.88;2.78;;;;;;;;;;4996277;28;20174;-81
2021/12/02 07:22:23;;;;;;;4.57;1.70;;;;;;;;;;4996882;28;20548;-81
2021/12/02 07:24:49;;;;;;;2.13;1.70;;;;;;;;;;4995679;28;20250;-81
2021/12/02 07:27:15;;;;;;;2.67;1.40;;;;;;;;;;4996871;28;20183;-80
2021/12/02 07:29:41;;;;;;;1.00;0.90;;;;;;;;;;4994898;28;20675;-81
2021/12/02 07:32:10;;;;;;;2.15;1.10;;;;;;;;;;4996288;28;20406;-82
2021/12/02 07:34:37;;;;;;;1.60;1.08;;;;;;;;;;4996308;28;20174;-81
2021/12/02 07:37:03;;;;;;;2.47;1.35;;;;;;;;;;4996345;28;20305;-81
2021/12/02 07:39:30;;;;;;;3.35;1.20;;;;;;;;;;4995995;28;20181;-82
2021/12/02 07:41:56;;;;;;;0.90;0.88;;;;;;;;;;4987772;28;20926;-83
2021/12/02 07:44:22;;;;;;;1.05;0.90;;;;;;;;;;4989308;28;20269;-83
2021/12/02 07:46:49;;;;;;;1.95;1.65;;;;;;;;;;4996131;28;20249;-83
2021/12/02 07:49:15;;;;;;;4.00;2.60;;;;;;;;;;4991923;28;20183;-82
2021/12/02 07:51:44;;;;;;;3.55;2.65;;;;;;;;;;4977751;28;20264;-82
2021/12/02 07:54:10;;;;;;;5.63;3.30;;;;;;;;;;4986157;28;20179;-83
2021/12/02 07:56:36;;;;;;;4.22;3.83;;;;;;;;;;4982308;28;20651;-83
2021/12/02 07:59:03;;;;;;;4.63;4.15;;;;;;;;;;4976507;28;20195;-81
2021/12/02 08:01:30;;;;;;;6.65;4.47;;;;;;;;;;4993140;28;20207;-82
2021/12/02 08:03:56;;;;;;;7.47;4.47;;;;;;;;;;4988100;28;20683;-80
2021/12/02 08:06:24;;;;;;;6.38;5.70;;;;;;;;;;4994742;28;20189;-81
2021/12/02 08:08:50;;;;;;;7.65;6.53;;;;;;;;;;4994887;28;20184;-82
2021/12/02 08:11:16;;;;;;;8.90;6.27;;;;;;;;;;4998319;28;20284;-81
2021/12/02 08:13:42;;;;;;;8.45;5.35;;;;;;;;;;4995158;28;20420;-82
2021/12/02 08:16:08;;;;;;;7.70;6.50;;;;;;;;;;4997269;28;20197;-81
2021/12/02 08:18:35;;;;;;;7.75;6.05;;;;;;;;;;4995794;28;20647;-82
2021/12/02 08:21:01;;;;;;;6.68;5.97;;;;;;;;;;4995231;28;20246;-81
2021/12/02 08:23:27;;;;;;;4.80;4.05;;;;;;;;;;4994331;28;20233;-82
2021/12/02 08:25:57;;;;;;;6.30;5.13;;;;;;;;;;4995601;28;20268;-81
2021/12/02 08:28:23;;;;;;;9.23;4.85;;;;;;;;;;4994362;28;20281;-82
2021/12/02 08:30:50;;;;;;;6.03;4.57;;;;;;;;;;4993769;28;20221;-82
2021/12/02 08:33:18;;;;;;;9.00;5.30;;;;;;;;;;4994925;28;20189;-81
2021/12/02 08:35:44;;;;;;;7.10;4.72;;;;;;;;;;4995466;28;20178;-80
2021/12/02 08:38:12;;;;;;;5.45;4.25;;;;;;;;;;4995149;28;20252;-81
2021/12/02 08:40:39;;;;;;;3.78;3.47;;;;;;;;;;4993553;28;20561;-80
2021/12/02 08:43:07;;;;;;;5.90;3.75;;;;;;;;;;4995458;28;20214;-80
2021/12/02 08:45:34;;;;;;;4.35;3.33;;;;;;;;;;4995820;28;20219;-81
2021/12/02 08:48:01;;;;;;;4.13;3.72;;;;;;;;;;4995348;28;20178;-81
2021/12/02 08:50:27;;;;;;;3.80;3.40;;;;;;;;;;4984237;28;20220;-80
2021/12/02 08:52:54;;;;;;;4.22;3.28;;;;;;;;;;4975666;28;20174;-81
2021/12/02 08:55:21;;;;;;;3.88;3.47;;;;;;;;;;4974497;28;20505;-81
2021/12/02 08:57:48;;;;;;;5.05;4.05;;;;;;;;;;4976065;28;20182;-82
2021/12/02 09:00:15;;;;;;;4.95;4.30;;;;;;;;;;4973963;28;20198;-81
2021/12/02 09:02:42;;;;;;;4.85;3.60;;;;;;;;;;4976005;28;20180;-80
2021/12/02 09:05:08;;;;;;;4.60;4.10;;;;;;;;;;4975622;28;20256;-81
2021/12/02 09:07:34;;;;;;;5.18;4.32;;;;;;;;;;4973900;28;20643;-81
2021/12/02 09:10:01;;;;;;;5.50;4.75;;;;;;;;;;4974958;28;20280;-81
2021/12/02 09:12:27;;;;;;;7.57;4.00;;;;;;;;;;4974704;28;20182;-79
2021/12/02 09:14:53;;;;;;;4.80;4.00;;;;;;;;;;4976518;28;20275;-82
2021/12/02 09:17:19;;;;;;;4.80;3.80;;;;;;;;;;4975442;28;20207;-81
2021/12/02 09:19:45;;;;;;;6.75;4.15;;;;;;;;;;4975395;28;20534;-80
2021/12/02 09:22:11;;;;;;;5.32;3.88;;;;;;;;;;4975324;28;20195;-81
2021/12/02 09:24:39;;;;;;;4.47;3.42;;;;;;;;;;4974108;28;20203;-82
2021/12/02 09:27:05;;;;;;;3.63;2.88;;;;;;;;;;4973493;28;20201;-82
2021/12/02 09:29:31;;;;;;;5.82;3.67;;;;;;;;;;4973400;28;20197;-81
2021/12/02 09:31:57;;;;;;;5.15;4.15;;;;;;;;;;4974640;28;20594;-81
2021/12/02 09:34:25;;;;;;;6.35;3.70;;;;;;;;;;4973402;28;20613;-82
2021/12/02 09:36:51;;;;;;;5.40;4.15;;;;;;;;;;4957661;28;20661;-81
2021/12/02 09:39:17;;;;;;;4.20;3.80;;;;;;;;;;4975443;28;20180;-81
2021/12/02 09:41:45;;;;;;;5.55;4.07;;;;;;;;;;4975770;28;20750;-80
2021/12/02 09:44:11;;;;;;;5.15;4.30;;;;;;;;;;4975450;28;20223;-81
2021/12/02 09:46:39;;;;;;;7.45;4.97;;;;;;;;;;4975050;28;20639;-80
2021/12/02 09:49:07;;;;;;;8.55;5.32;;;;;;;;;;4975621;28;20249;-80
2021/12/02 09:54:21;;;;;;;4.93;4.10;;;;;;;;;;4974865;28;20163;-81
2021/12/02 09:56:50;;;;;;;5.47;4.60;;;;;;;;;;4957783;28;20190;-80
2021/12/02 09:59:46;;;;;;;5.90;4.60;;;;;;;;;;4974410;28;20180;-81
2021/12/02 10:02:09;;;;;;;6.38;4.85;;;;;;;;;;4972508;28;20617;-81
2021/12/02 10:04:43;;;;;;;4.90;4.40;;;;;;;;;;4974392;28;20175;-81
2021/12/02 10:07:24;;;;;;;6.82;5.10;;;;;;;;;;4974195;28;20621;-81
2021/12/02 10:09:56;;;;;;;7.60;4.20;;;;;;;;;;4974083;28;20568;-81
2021/12/02 10:12:23;;;;;;;5.63;5.07;;;;;;;;;;4974369;28;20182;-80
2021/12/02 10:14:56;;;;;;;6.20;3.67;;;;;;;;;;4974311;28;20201;-80
2021/12/02 10:23:12;;;;;;;3.40;2.17;;;;;;;;;;4978574;28;20187;-80
2021/12/02 10:25:38;;;;;;;2.20;1.88;;;;;;;;;;4977905;28;20197;-81
2021/12/02 10:28:08;;;;;;;2.38;1.50;;;;;;;;;;4978003;28;20250;-80
2021/12/02 10:30:35;;;;;;;1.98;1.85;;;;;;;;;;4976411;28;20698;-81
2021/12/02 10:33:01;;;;;;;1.70;1.60;;;;;;;;;;4976957;28;20184;-81
2021/12/02 10:35:49;;;;;;;4.20;1.70;;;;;;;;;;4976722;28;20351;-82
2021/12/02 10:38:33;;;;;;;2.10;1.90;;;;;;;;;;4980281;28;20223;-82
2021/12/02 10:41:09;;;;;;;1.63;1.52;;;;;;;;;;4977955;28;20204;-82
2021/12/02 10:43:35;;;;;;;2.45;1.25;;;;;;;;;;4977876;28;20497;-80
2021/12/02 10:46:20;;;;;;;2.35;1.10;;;;;;;;;;4976433;28;20565;-81
2021/12/02 10:48:48;;;;;;;6.07;2.10;;;;;;;;;;4977719;28;20258;-80
2021/12/02 10:51:32;;;;;;;5.40;1.73;;;;;;;;;;4977202;28;20756;-80
2021/12/02 10:53:59;;;;;;;2.30;1.00;;;;;;;;;;4977495;28;20255;-79
2021/12/02 10:56:32;;;;;;;4.85;1.40;;;;;;;;;;4977581;28;20176;-80
2021/12/02 10:58:58;;;;;;;2.67;1.30;;;;;;;;;;4977472;28;20234;-80
2021/12/02 11:01:39;;;;;;;4.03;1.73;;;;;;;;;;4977345;28;20203;-80
2021/12/02 11:04:06;;;;;;;1.45;1.00;;;;;;;;;;4976125;28;20187;-80
2021/12/02 11:06:42;;;;;;;3.08;1.25;;;;;;;;;;4977463;28;20227;-79
2021/12/02 11:09:28;;;;;;;3.15;1.08;;;;;;;;;;4976269;28;20207;-80
2021/12/02 11:12:10;;;;;;;1.95;0.85;;;;;;;;;;4982461;28;20211;-80
2021/12/02 11:14:39;;;;;;;1.40;0.90;;;;;;;;;;4992462;28;20234;-79
2021/12/02 11:17:13;;;;;;;1.98;1.30;;;;;;;;;;4995162;28;20183;-79
2021/12/02 11:19:39;;;;;;;1.58;1.48;;;;;;;;;;4996109;28;20194;-81
2021/12/02 11:22:10;;;;;;;3.15;1.80;;;;;;;;;;4996442;28;20199;-78
2021/12/02 11:24:39;;;;;;;1.83;1.67;;;;;;;;;;4996593;28;20199;-79
2021/12/02 11:27:17;;;;;;;3.78;1.90;;;;;;;;;;4996600;28;20203;-79
2021/12/02 11:29:46;;;;;;;3.40;2.40;;;;;;;;;;4994290;28;20179;-80
2021/12/02 11:32:25;;;;;;;2.90;2.60;;;;;;;;;;4996310;28;20250;-79
2021/12/02 11:35:06;;;;;;;3.05;2.08;;;;;;;;;;4996206;28;20198;-81
2021/12/02 11:37:34;;;;;;;3.47;3.17;;;;;;;;;;4996329;28;20226;-79
2021/12/02 11:40:03;;;;;;;3.10;2.80;;;;;;;;;;4994651;28;20215;-79
2021/12/02 11:42:29;;;;;;;6.30;3.78;;;;;;;;;;4996084;28;20545;-79
2021/12/02 11:44:56;;;;;;;5.07;4.00;;;;;;;;;;4979823;28;20680;-79
2021/12/02 11:47:23;;;;;;;4.53;3.92;;;;;;;;;;4976419;28;20684;-79
2021/12/02 11:49:49;;;;;;;2.53;2.30;;;;;;;;;;4976054;28;20259;-79
2021/12/02 11:52:15;;;;;;;4.55;2.55;;;;;;;;;;4976279;28;20264;-78
2021/12/02 11:54:41;;;;;;;9.95;2.22;;;;;;;;;;4975351;28;20548;-79
2021/12/02 11:57:07;;;;;;;2.55;2.33;;;;;;;;;;4976478;28;20659;-78
2021/12/02 11:59:33;;;;;;;2.00;1.52;;;;;;;;;;4976420;28;20181;-78
2021/12/02 12:02:00;;;;;;;3.88;1.85;;;;;;;;;;4976282;28;20209;-78
2021/12/02 12:04:26;;;;;;;4.32;1.92;;;;;;;;;;4976059;28;20176;-78
2021/12/02 12:07:08;;;;;;;1.60;1.50;;;;;;;;;;4976863;28;20262;-78
2021/12/02 12:09:34;;;;;;;3.88;1.70;;;;;;;;;;4974409;28;20680;-78
2021/12/02 12:12:01;;;;;;;4.18;1.30;;;;;;;;;;4974842;28;20263;-78
2021/12/02 12:14:40;;;;;;;2.05;1.48;;;;;;;;;;4976403;28;20273;-80
2021/12/02 12:17:20;;;;;;;3.53;2.33;;;;;;;;;;4976062;28;20230;-79
2021/12/02 12:19:47;;;;;;;6.65;2.40;;;;;;;;;;4975672;28;20263;-77
2021/12/02 12:22:23;;;;;;;3.70;2.13;;;;;;;;;;4976173;28;20184;-79
2021/12/02 12:24:51;;;;;;;5.00;2.10;;;;;;;;;;4974634;28;20197;-79
2021/12/02 12:27:17;;;;;;;2.42;1.73;;;;;;;;;;4976127;28;20516;-78
2021/12/02 12:29:44;;;;;;;3.05;1.98;;;;;;;;;;4975390;28;20706;-78
2021/12/02 12:34:52;;;;;;;2.63;2.13;;;;;;;;;;4976030;28;20179;-80
2021/12/02 12:37:33;;;;;;;2.95;2.10;;;;;;;;;;4975793;28;20183;-80
2021/12/02 12:40:10;;;;;;;4.43;1.70;;;;;;;;;;4975323;28;20523;-80
2021/12/02 12:42:37;;;;;;;3.45;1.33;;;;;;;;;;4974936;28;20195;-80
2021/12/02 12:45:04;;;;;;;4.15;1.80;;;;;;;;;;4975598;28;20251;-79
2021/12/02 12:47:40;;;;;;;1.90;1.33;;;;;;;;;;4975597;28;20180;-80
2021/12/02 12:50:26;;;;;;;4.05;1.92;;;;;;;;;;4973945;28;20716;-80
2021/12/02 12:52:53;;;;;;;5.75;2.00;;;;;;;;;;4975336;28;20179;-79
2021/12/02 12:55:21;;;;;;;3.95;2.10;;;;;;;;;;4975287;28;20180;-79
2021/12/02 12:58:26;;;;;;;2.60;1.77;;;;;;;;;;4974071;28;20542;-79
2021/12/02 13:00:57;;;;;;;3.35;1.90;;;;;;;;;;4934339;29;20220;-80
2021/12/02 13:03:32;;;;;;;4.03;2.40;;;;;;;;;;4935093;29;20180;-79
2021/12/02 13:06:10;;;;;;;3.22;2.90;;;;;;;;;;4957952;28;20210;-81
2021/12/02 13:08:47;;;;;;;3.20;1.70;;;;;;;;;;4975078;28;20160;-79
2021/12/02 13:11:13;;;;;;;2.15;1.95;;;;;;;;;;4974647;28;20758;-80
2021/12/02 13:13:40;;;;;;;2.60;2.28;;;;;;;;;;4975078;28;20533;-80
2021/12/02 13:16:19;;;;;;;5.43;2.00;;;;;;;;;;4974845;28;20180;-80
2021/12/02 13:18:52;;;;;;;2.30;2.10;;;;;;;;;;4974897;28;20181;-79
2021/12/02 13:21:31;;;;;;;3.88;2.88;;;;;;;;;;4974565;28;20208;-79
2021/12/02 13:24:01;;;;;;;4.25;2.80;;;;;;;;;;4975931;28;20242;-79
2021/12/02 13:26:27;;;;;;;8.32;2.60;;;;;;;;;;4975129;28;20223;-80
2021/12/02 13:28:57;;;;;;;4.07;2.70;;;;;;;;;;4975005;28;20214;-79
2021/12/02 13:31:24;;;;;;;3.15;2.85;;;;;;;;;;4974576;28;20550;-78
2021/12/02 13:33:52;;;;;;;3.13;2.80;;;;;;;;;;4973900;28;20183;-79
2021/12/02 13:36:39;;;;;;;10.00;2.70;;;;;;;;;;4974811;28;20175;-80
2021/12/02 13:39:27;;;;;;;6.20;2.50;;;;;;;;;;4973452;28;20175;-79
2021/12/02 13:41:58;;;;;;;5.43;2.97;;;;;;;;;;4974617;28;20246;-79
2021/12/02 13:44:32;;;;;;;3.95;3.00;;;;;;;;;;4974810;28;20178;-80
2021/12/02 13:47:23;;;;;;;5.13;3.30;;;;;;;;;;4974554;28;20193;-81
2021/12/02 13:49:54;;;;;;;7.20;3.85;;;;;;;;;;4972886;28;20262;-80
2021/12/02 13:54:51;;;;;;;3.95;3.65;;;;;;;;;;4974701;28;20191;-79
2021/12/02 13:57:25;;;;;;;6.63;3.50;;;;;;;;;;4974354;28;20172;-81
2021/12/02 13:59:51;;;;;;;4.60;4.03;;;;;;;;;;4974090;28;20175;-79
2021/12/02 14:02:22;;;;;;;4.10;3.70;;;;;;;;;;4974490;28;20179;-81
2021/12/02 14:04:48;;;;;;;5.55;3.10;;;;;;;;;;4973148;28;20190;-79
2021/12/02 14:07:14;;;;;;;4.65;3.60;;;;;;;;;;4974238;28;20179;-79
2021/12/02 14:09:47;;;;;;;4.90;3.97;;;;;;;;;;4973941;28;20177;-80
2021/12/02 14:12:13;;;;;;;6.00;4.63;;;;;;;;;;4974282;28;20179;-81
2021/12/02 14:14:53;;;;;;;4.75;4.10;;;;;;;;;;4973039;28;20183;-80
2021/12/02 14:17:19;;;;;;;4.78;3.70;;;;;;;;;;4974156;28;20175;-80
2021/12/02 14:20:04;;;;;;;8.57;5.43;;;;;;;;;;4973881;28;20551;-80
2021/12/02 14:22:31;;;;;;;4.70;3.55;;;;;;;;;;4974380;28;20182;-80
2021/12/02 14:24:57;;;;;;;3.83;3.13;;;;;;;;;;4974222;28;20197;-80
2021/12/02 14:27:23;;;;;;;4.45;4.05;;;;;;;;;;4974156;28;20188;-80
2021/12/02 14:30:04;;;;;;;7.35;4.25;;;;;;;;;;4973559;28;20184;-79
2021/12/02 14:32:31;;;;;;;8.27;4.75;;;;;;;;;;4974213;28;20189;-79
2021/12/02 14:35:11;;;;;;;3.42;3.13;;;;;;;;;;4974030;28;20195;-80
2021/12/02 14:37:42;;;;;;;5.13;4.45;;;;;;;;;;4973915;28;20171;-79
2021/12/02 14:40:09;;;;;;;7.72;4.60;;;;;;;;;;4973802;28;20195;-80
2021/12/02 14:42:35;;;;;;;7.35;4.68;;;;;;;;;;4973927;28;20180;-80
2021/12/02 14:45:01;;;;;;;4.38;4.00;;;;;;;;;;4973960;28;20204;-80
2021/12/02 14:47:35;;;;;;;4.65;3.60;;;;;;;;;;4973877;28;20179;-80
2021/12/02 14:50:09;;;;;;;10.35;3.75;;;;;;;;;;4973422;28;20289;-81
2021/12/02 14:52:36;;;;;;;9.55;5.25;;;;;;;;;;4973872;28;20179;-80
2021/12/02 14:55:13;;;;;;;5.03;4.20;;;;;;;;;;4973800;28;20172;-81
2021/12/02 14:57:43;;;;;;;7.20;4.45;;;;;;;;;;4973647;28;20206;-81
2021/12/02 15:00:13;;;;;;;5.88;4.63;;;;;;;;;;4973369;28;20194;-78
2021/12/02 15:02:40;;;;;;;4.63;4.22;;;;;;;;;;4973792;28;20180;-81
2021/12/02 15:05:23;;;;;;;11.77;3.55;;;;;;;;;;4974528;28;20225;-80
2021/12/02 15:07:59;;;;;;;7.50;4.35;;;;;;;;;;4975928;28;20242;-81
2021/12/02 15:10:27;;;;;;;7.18;4.50;;;;;;;;;;4976923;28;20271;-79
2021/12/02 15:12:54;;;;;;;6.70;5.32;;;;;;;;;;4977480;28;20257;-79
2021/12/02 15:15:25;;;;;;;8.18;5.13;;;;;;;;;;4977281;28;20180;-79
2021/12/02 15:17:58;;;;;;;5.55;4.53;;;;;;;;;;4976942;28;20179;-79
2021/12/02 15:20:24;;;;;;;5.57;3.95;;;;;;;;;;4976873;28;20234;-79
2021/12/02 15:22:53;;;;;;;7.68;5.00;;;;;;;;;;4977092;28;20180;-80
2021/12/02 15:25:23;;;;;;;7.18;5.80;;;;;;;;;;4976910;28;20218;-81